Time;durP1;ratioP1;P1;durP2;ratioP2;P2;SDS_P1;SDS_P2;PMS_P1;PMS_P2;Temp;Humidity;BMP_temperature;BMP_pressure;BME280_temperature;BME280_humidity;BME280_pressure;Samples;Min_cycle;Max_cycle;Signal;HPM_P1;HPM_P2
2024/04/20 00:00:28;;;;;;;18.70;8.48;;;;;;;;;;5500033;26;20131;-41
2024/04/20 00:02:55;;;;;;;18.30;7.65;;;;;;;;;;5498144;26;20015;-51
2024/04/20 00:05:21;;;;;;;22.15;8.90;;;;;;;;;;5508526;26;19993;-41
2024/04/20 00:07:48;;;;;;;28.45;8.95;;;;;;;;;;5502067;26;19995;-45
2024/04/20 00:10:15;;;;;;;17.27;8.73;;;;;;;;;;5498918;26;20039;-41
2024/04/20 00:12:41;;;;;;;15.82;9.10;;;;;;;;;;5500396;26;19998;-42
2024/04/20 00:15:08;;;;;;;21.42;9.02;;;;;;;;;;5498803;26;20022;-43
2024/04/20 00:17:35;;;;;;;24.67;9.40;;;;;;;;;;5501168;26;19998;-41
2024/04/20 00:20:02;;;;;;;16.90;8.45;;;;;;;;;;5497447;26;20002;-42
2024/04/20 00:22:29;;;;;;;25.77;9.45;;;;;;;;;;5497898;26;19990;-43
2024/04/20 00:24:55;;;;;;;20.52;8.88;;;;;;;;;;5500449;26;20103;-45
2024/04/20 00:27:22;;;;;;;21.45;9.50;;;;;;;;;;5500463;26;19993;-43
2024/04/20 00:29:49;;;;;;;25.83;9.88;;;;;;;;;;5498029;26;20235;-50
2024/04/20 00:32:15;;;;;;;21.80;11.25;;;;;;;;;;5503045;26;19994;-42
2024/04/20 00:34:42;;;;;;;23.55;10.50;;;;;;;;;;5502082;26;20001;-41
2024/04/20 00:37:09;;;;;;;30.45;11.25;;;;;;;;;;5497498;26;19998;-41
2024/04/20 00:39:35;;;;;;;28.58;10.65;;;;;;;;;;5502164;26;19986;-47
2024/04/20 00:42:02;;;;;;;18.63;10.65;;;;;;;;;;5502215;26;20164;-42
2024/04/20 00:44:29;;;;;;;19.13;9.00;;;;;;;;;;5486528;26;20199;-50
2024/04/20 00:47:01;;;;;;;23.42;9.82;;;;;;;;;;5500073;26;19990;-43
2024/04/20 00:49:27;;;;;;;;;;;;;;;;;;5502429;26;20010;-54
2024/04/20 00:51:54;;;;;;;25.10;11.25;;;;;;;;;;5502205;26;19927;-42
2024/04/20 00:54:21;;;;;;;21.58;11.23;;;;;;;;;;5502460;26;20010;-47
2024/04/20 00:56:47;;;;;;;19.05;11.25;;;;;;;;;;5502765;26;19989;-43
2024/04/20 00:59:14;;;;;;;14.50;9.40;;;;;;;;;;5502520;26;19986;-47
2024/04/20 01:01:41;;;;;;;18.70;8.35;;;;;;;;;;5502427;26;19994;-43
2024/04/20 01:04:07;;;;;;;17.35;8.50;;;;;;;;;;5501614;26;20042;-41
2024/04/20 01:06:34;;;;;;;15.13;9.20;;;;;;;;;;5491507;26;19990;-42
2024/04/20 01:09:01;;;;;;;13.80;8.23;;;;;;;;;;5493447;26;20001;-49
2024/04/20 01:11:27;;;;;;;15.90;8.65;;;;;;;;;;5502825;26;19994;-47
2024/04/20 01:14:02;;;;;;;12.18;8.43;;;;;;;;;;5501383;26;19986;-45
2024/04/20 01:16:29;;;;;;;15.95;9.50;;;;;;;;;;5501638;26;19986;-46
2024/04/20 01:18:56;;;;;;;12.52;9.48;;;;;;;;;;5502510;26;20281;-47
2024/04/20 01:21:23;;;;;;;13.93;10.07;;;;;;;;;;5502594;26;19990;-46
2024/04/20 01:23:54;;;;;;;12.00;9.15;;;;;;;;;;5502711;26;19993;-47
2024/04/20 01:26:21;;;;;;;9.82;8.43;;;;;;;;;;5503819;26;19994;-46
2024/04/20 01:28:48;;;;;;;25.90;9.18;;;;;;;;;;5503012;26;20035;-42
2024/04/20 01:31:14;;;;;;;18.55;8.35;;;;;;;;;;5500661;26;19986;-47
2024/04/20 01:33:41;;;;;;;17.08;8.27;;;;;;;;;;5501002;26;19990;-46
2024/04/20 01:36:07;;;;;;;15.05;8.85;;;;;;;;;;5501365;26;19982;-46
2024/04/20 01:38:34;;;;;;;17.33;9.32;;;;;;;;;;5502462;26;20039;-47
2024/04/20 01:41:00;;;;;;;11.95;9.45;;;;;;;;;;5503064;26;19989;-46
2024/04/20 01:43:27;;;;;;;15.70;9.35;;;;;;;;;;5503826;26;20069;-50
2024/04/20 01:45:54;;;;;;;15.35;9.00;;;;;;;;;;5506147;26;19990;-53
2024/04/20 01:48:20;;;;;;;15.20;8.82;;;;;;;;;;5505816;26;20042;-52
2024/04/20 01:50:47;;;;;;;22.42;10.05;;;;;;;;;;5506130;26;19990;-49
2024/04/20 01:53:13;;;;;;;16.48;9.93;;;;;;;;;;5506049;26;19982;-52
2024/04/20 01:55:40;;;;;;;27.20;10.43;;;;;;;;;;5505553;26;20001;-50
2024/04/20 01:58:06;;;;;;;21.70;9.68;;;;;;;;;;5505832;26;19982;-45
2024/04/20 02:00:33;;;;;;;17.23;9.70;;;;;;;;;;5506298;26;19986;-50
2024/04/20 02:03:00;;;;;;;18.92;9.00;;;;;;;;;;5505928;26;20037;-48
2024/04/20 02:05:26;;;;;;;18.75;8.63;;;;;;;;;;5505477;26;19986;-50
2024/04/20 02:07:53;;;;;;;20.65;8.70;;;;;;;;;;5505679;26;19998;-45
2024/04/20 02:10:19;;;;;;;15.27;9.60;;;;;;;;;;5505518;26;19986;-53
2024/04/20 02:12:46;;;;;;;18.48;9.32;;;;;;;;;;5505221;26;20074;-49
2024/04/20 02:15:13;;;;;;;19.92;9.63;;;;;;;;;;5505838;26;19986;-46
2024/04/20 02:17:39;;;;;;;14.05;9.00;;;;;;;;;;5505474;26;20187;-49
2024/04/20 02:20:06;;;;;;;14.95;9.70;;;;;;;;;;5505502;26;19986;-48
2024/04/20 02:22:33;;;;;;;17.75;9.55;;;;;;;;;;5506069;26;20038;-46
2024/04/20 02:24:59;;;;;;;18.83;9.68;;;;;;;;;;5505689;26;19994;-49
2024/04/20 02:27:26;;;;;;;18.58;9.73;;;;;;;;;;5505253;26;20099;-46
2024/04/20 02:29:53;;;;;;;17.65;10.57;;;;;;;;;;5506026;26;20000;-43
2024/04/20 02:32:19;;;;;;;20.10;10.25;;;;;;;;;;5505277;26;19990;-48
2024/04/20 02:34:46;;;;;;;22.13;10.35;;;;;;;;;;5505521;26;19986;-54
2024/04/20 02:37:12;;;;;;;17.63;10.57;;;;;;;;;;5504820;26;20314;-51
2024/04/20 02:39:39;;;;;;;20.52;11.10;;;;;;;;;;5505203;26;20194;-47
2024/04/20 02:42:07;;;;;;;22.17;10.80;;;;;;;;;;5505147;26;20006;-45
2024/04/20 02:44:34;;;;;;;20.45;11.50;;;;;;;;;;5504780;26;19993;-48
2024/04/20 02:47:01;;;;;;;24.25;11.30;;;;;;;;;;5504844;26;19994;-43
2024/04/20 02:49:28;;;;;;;20.60;10.57;;;;;;;;;;5504802;26;20190;-46
2024/04/20 02:51:55;;;;;;;21.58;11.05;;;;;;;;;;5504891;26;19993;-43
2024/04/20 02:54:22;;;;;;;25.08;11.18;;;;;;;;;;5505465;26;19989;-44
2024/04/20 02:56:48;;;;;;;21.40;11.20;;;;;;;;;;5505857;26;20052;-48
2024/04/20 02:59:15;;;;;;;19.63;10.70;;;;;;;;;;5505643;26;20011;-40
2024/04/20 03:01:41;;;;;;;22.30;10.85;;;;;;;;;;5505590;26;19982;-44
2024/04/20 03:04:08;;;;;;;18.92;10.77;;;;;;;;;;5505525;26;20014;-45
2024/04/20 03:06:35;;;;;;;22.58;10.90;;;;;;;;;;5504760;26;19990;-46
2024/04/20 03:09:01;;;;;;;29.63;12.00;;;;;;;;;;5504587;26;19990;-43
2024/04/20 03:11:28;;;;;;;26.75;12.45;;;;;;;;;;5504881;26;19986;-46
2024/04/20 03:13:55;;;;;;;23.67;11.88;;;;;;;;;;5505002;26;20166;-44
2024/04/20 03:16:21;;;;;;;31.15;11.45;;;;;;;;;;5505138;26;19989;-42
2024/04/20 03:18:48;;;;;;;21.27;10.90;;;;;;;;;;5505281;26;19993;-48
2024/04/20 03:21:15;;;;;;;27.50;12.55;;;;;;;;;;5505180;26;20006;-44
2024/04/20 03:23:41;;;;;;;31.42;11.50;;;;;;;;;;5505153;26;19993;-42
2024/04/20 03:26:08;;;;;;;18.88;11.32;;;;;;;;;;5504492;26;20001;-42
2024/04/20 03:28:35;;;;;;;22.45;10.30;;;;;;;;;;5504428;26;19993;-45
2024/04/20 03:31:01;;;;;;;19.80;9.63;;;;;;;;;;5504820;26;19993;-42
2024/04/20 03:33:28;;;;;;;15.13;9.00;;;;;;;;;;5504459;26;20009;-47
2024/04/20 03:35:58;;;;;;;16.75;9.70;;;;;;;;;;5504466;26;19996;-43
2024/04/20 03:38:25;;;;;;;11.48;8.95;;;;;;;;;;5504294;26;19998;-43
2024/04/20 03:40:51;;;;;;;11.27;7.95;;;;;;;;;;5504338;26;19986;-46
2024/04/20 03:43:18;;;;;;;12.45;8.07;;;;;;;;;;5504769;26;19993;-50
2024/04/20 03:45:51;;;;;;;14.45;8.20;;;;;;;;;;5504311;26;19997;-47
2024/04/20 03:48:17;;;;;;;11.65;7.85;;;;;;;;;;5502631;26;19990;-45
2024/04/20 03:50:57;;;;;;;9.60;7.90;;;;;;;;;;5504524;26;20043;-50
2024/04/20 03:53:24;;;;;;;12.85;7.95;;;;;;;;;;5504489;26;19993;-49
2024/04/20 03:55:52;;;;;;;10.48;8.05;;;;;;;;;;5504533;26;20186;-48
2024/04/20 03:58:19;;;;;;;13.98;8.15;;;;;;;;;;5504143;26;19998;-42
2024/04/20 04:00:48;;;;;;;24.83;9.75;;;;;;;;;;5504152;26;20058;-41
2024/04/20 04:03:21;;;;;;;12.70;8.48;;;;;;;;;;5503643;26;20002;-45
2024/04/20 04:05:48;;;;;;;14.10;8.18;;;;;;;;;;5504104;26;19996;-41
2024/04/20 04:08:14;;;;;;;8.73;6.93;;;;;;;;;;5503922;26;20126;-48
2024/04/20 04:10:41;;;;;;;9.52;7.30;;;;;;;;;;5503628;26;20034;-42
2024/04/20 04:13:08;;;;;;;10.90;6.72;;;;;;;;;;5504526;26;19993;-44
2024/04/20 04:15:36;;;;;;;9.88;6.15;;;;;;;;;;5503959;26;20191;-45
2024/04/20 04:18:03;;;;;;;10.60;6.70;;;;;;;;;;5503807;26;19998;-48
2024/04/20 04:20:29;;;;;;;8.20;6.20;;;;;;;;;;5504171;26;19994;-44
2024/04/20 04:22:56;;;;;;;8.35;6.38;;;;;;;;;;5503730;26;19986;-42
2024/04/20 04:25:23;;;;;;;7.53;6.22;;;;;;;;;;5503815;26;19993;-41
2024/04/20 04:27:50;;;;;;;8.95;6.38;;;;;;;;;;5503290;26;20010;-42
2024/04/20 04:30:16;;;;;;;9.50;6.88;;;;;;;;;;5503911;26;19984;-47
2024/04/20 04:32:43;;;;;;;9.88;6.63;;;;;;;;;;5503995;26;20001;-43
2024/04/20 04:35:09;;;;;;;8.68;6.70;;;;;;;;;;5503419;26;19989;-49
2024/04/20 04:37:36;;;;;;;8.85;6.97;;;;;;;;;;5503895;26;19986;-47
2024/04/20 04:40:03;;;;;;;9.07;7.10;;;;;;;;;;5503817;26;19978;-43
2024/04/20 04:42:29;;;;;;;7.30;6.43;;;;;;;;;;5503637;26;19993;-45
2024/04/20 04:44:56;;;;;;;9.85;6.53;;;;;;;;;;5503626;26;19985;-48
2024/04/20 04:47:23;;;;;;;11.95;6.45;;;;;;;;;;5503113;26;20095;-48
2024/04/20 04:49:50;;;;;;;9.57;6.13;;;;;;;;;;5503385;26;20047;-56
2024/04/20 04:52:17;;;;;;;8.88;5.88;;;;;;;;;;5503779;26;19989;-48
2024/04/20 04:54:44;;;;;;;6.78;6.07;;;;;;;;;;5503480;26;19983;-50
2024/04/20 04:57:10;;;;;;;7.40;5.85;;;;;;;;;;5503642;26;19994;-47
2024/04/20 04:59:37;;;;;;;8.45;5.80;;;;;;;;;;5504215;26;19978;-56
2024/04/20 05:02:04;;;;;;;8.55;5.45;;;;;;;;;;5506564;26;20094;-50
2024/04/20 05:04:30;;;;;;;9.68;5.97;;;;;;;;;;5506253;26;19990;-47
2024/04/20 05:06:58;;;;;;;8.63;5.43;;;;;;;;;;5506318;26;19990;-43
2024/04/20 05:09:25;;;;;;;6.22;5.63;;;;;;;;;;5506495;26;19982;-48
2024/04/20 05:11:51;;;;;;;7.05;5.65;;;;;;;;;;5506494;26;19994;-44
2024/04/20 05:14:18;;;;;;;7.95;5.43;;;;;;;;;;5506399;26;20056;-42
2024/04/20 05:16:47;;;;;;;8.65;5.38;;;;;;;;;;5507165;26;19996;-43
2024/04/20 05:19:14;;;;;;;8.43;5.18;;;;;;;;;;5506827;26;19986;-41
2024/04/20 05:21:40;;;;;;;5.72;5.00;;;;;;;;;;5507127;26;19993;-46
2024/04/20 05:24:08;;;;;;;6.68;5.32;;;;;;;;;;5507117;26;19987;-49
2024/04/20 05:26:35;;;;;;;8.18;5.60;;;;;;;;;;5506629;26;19994;-44
2024/04/20 05:29:01;;;;;;;8.50;5.40;;;;;;;;;;5506357;26;20038;-48
2024/04/20 05:31:28;;;;;;;6.70;5.55;;;;;;;;;;5506906;26;19986;-48
2024/04/20 05:33:55;;;;;;;7.70;5.65;;;;;;;;;;5506907;26;19998;-40
2024/04/20 05:36:21;;;;;;;8.63;5.28;;;;;;;;;;5506619;26;20163;-47
2024/04/20 05:38:48;;;;;;;7.50;5.15;;;;;;;;;;5506955;26;19992;-49
2024/04/20 05:41:15;;;;;;;8.15;5.88;;;;;;;;;;5506724;26;20168;-50
2024/04/20 05:43:41;;;;;;;9.05;5.35;;;;;;;;;;5505378;26;19990;-43
2024/04/20 05:46:08;;;;;;;8.07;5.15;;;;;;;;;;5505847;26;20010;-42
2024/04/20 05:48:34;;;;;;;7.20;5.72;;;;;;;;;;5505300;26;19982;-44
2024/04/20 05:51:01;;;;;;;11.45;5.70;;;;;;;;;;5505689;26;20043;-40
2024/04/20 05:53:28;;;;;;;9.10;5.70;;;;;;;;;;5505590;26;20182;-41
2024/04/20 05:55:54;;;;;;;10.63;5.95;;;;;;;;;;5505548;26;20199;-42
2024/04/20 05:58:21;;;;;;;10.15;5.97;;;;;;;;;;5505796;26;20018;-44
2024/04/20 06:00:47;;;;;;;10.45;5.30;;;;;;;;;;5506205;26;19986;-42
2024/04/20 06:03:14;;;;;;;10.27;6.07;;;;;;;;;;5504657;26;19998;-45
2024/04/20 06:05:47;;;;;;;11.35;6.95;;;;;;;;;;5506685;26;19990;-52
2024/04/20 06:08:14;;;;;;;10.38;7.10;;;;;;;;;;5504069;26;19998;-39
2024/04/20 06:10:40;;;;;;;10.30;6.25;;;;;;;;;;5504475;26;20010;-42
2024/04/20 06:13:07;;;;;;;10.85;6.07;;;;;;;;;;5504294;26;20005;-40
2024/04/20 06:15:34;;;;;;;9.80;6.25;;;;;;;;;;5505474;26;19990;-39
2024/04/20 06:18:01;;;;;;;7.22;6.13;;;;;;;;;;5504942;26;19993;-41
2024/04/20 06:20:27;;;;;;;9.07;6.60;;;;;;;;;;5505098;26;19990;-44
2024/04/20 06:22:54;;;;;;;8.50;6.00;;;;;;;;;;5504150;26;20026;-40
2024/04/20 06:25:21;;;;;;;10.25;6.55;;;;;;;;;;5504948;26;19990;-46
2024/04/20 06:27:47;;;;;;;10.50;6.82;;;;;;;;;;5504826;26;19986;-39
2024/04/20 06:30:14;;;;;;;7.65;6.60;;;;;;;;;;5505119;26;19990;-45
2024/04/20 06:32:41;;;;;;;9.63;6.50;;;;;;;;;;5504717;26;20010;-40
2024/04/20 06:35:07;;;;;;;7.80;6.85;;;;;;;;;;5504996;26;19993;-39
2024/04/20 06:37:34;;;;;;;8.45;6.78;;;;;;;;;;5504702;26;19982;-42
2024/04/20 06:40:00;;;;;;;7.82;6.45;;;;;;;;;;5504949;26;19998;-38
2024/04/20 06:42:27;;;;;;;9.15;6.80;;;;;;;;;;5504741;26;20004;-39
2024/04/20 06:44:53;;;;;;;7.55;6.65;;;;;;;;;;5504991;26;20041;-39
2024/04/20 06:47:20;;;;;;;8.65;6.65;;;;;;;;;;5504575;26;19990;-38
2024/04/20 06:49:51;;;;;;;8.38;6.80;;;;;;;;;;5504942;26;19993;-39
2024/04/20 06:52:17;;;;;;;8.40;6.75;;;;;;;;;;5504714;26;20014;-42
2024/04/20 06:54:44;;;;;;;9.10;6.85;;;;;;;;;;5504494;26;20089;-39
2024/04/20 06:57:11;;;;;;;7.97;6.82;;;;;;;;;;5504729;26;19989;-42
2024/04/20 06:59:38;;;;;;;7.47;6.63;;;;;;;;;;5504601;26;19986;-39
2024/04/20 07:02:04;;;;;;;7.63;6.68;;;;;;;;;;5504537;26;19986;-38
2024/04/20 07:04:31;;;;;;;9.30;6.93;;;;;;;;;;5504391;26;20099;-39
2024/04/20 07:06:58;;;;;;;9.10;6.50;;;;;;;;;;5504425;26;20010;-39
2024/04/20 07:09:25;;;;;;;7.78;6.80;;;;;;;;;;5504190;26;20001;-38
2024/04/20 07:11:51;;;;;;;8.40;7.05;;;;;;;;;;5504270;26;20090;-42
2024/04/20 07:14:18;;;;;;;7.03;6.32;;;;;;;;;;5504382;26;20010;-46
2024/04/20 07:16:45;;;;;;;8.95;6.38;;;;;;;;;;5504448;26;20202;-40
2024/04/20 07:19:12;;;;;;;8.02;6.43;;;;;;;;;;5504131;26;20002;-39
2024/04/20 07:21:39;;;;;;;9.18;6.93;;;;;;;;;;5504320;26;19989;-46
2024/04/20 07:24:07;;;;;;;8.18;6.20;;;;;;;;;;5502693;26;20067;-42
2024/04/20 07:26:34;;;;;;;8.10;7.25;;;;;;;;;;5503870;26;20050;-39
2024/04/20 07:29:01;;;;;;;7.88;6.72;;;;;;;;;;5503192;26;20207;-40
2024/04/20 07:31:27;;;;;;;8.02;6.70;;;;;;;;;;5504097;26;20187;-37
2024/04/20 07:33:54;;;;;;;8.07;6.90;;;;;;;;;;5503864;26;19985;-40
2024/04/20 07:36:21;;;;;;;11.38;6.97;;;;;;;;;;5503040;26;20013;-39
2024/04/20 07:38:48;;;;;;;7.22;6.53;;;;;;;;;;5503915;26;20043;-38
2024/04/20 07:41:14;;;;;;;8.75;7.15;;;;;;;;;;5503736;26;19990;-47
2024/04/20 07:43:41;;;;;;;10.18;6.85;;;;;;;;;;5503802;26;20046;-42
2024/04/20 07:46:07;;;;;;;9.07;6.97;;;;;;;;;;5503889;26;20190;-38
2024/04/20 07:48:34;;;;;;;8.30;6.78;;;;;;;;;;5503669;26;20225;-39
2024/04/20 07:51:04;;;;;;;10.15;7.30;;;;;;;;;;5503902;26;19982;-41
2024/04/20 07:53:31;;;;;;;7.43;6.63;;;;;;;;;;5503885;26;20198;-37
2024/04/20 07:55:57;;;;;;;9.18;6.82;;;;;;;;;;5503601;26;20202;-39
2024/04/20 07:58:24;;;;;;;8.80;6.90;;;;;;;;;;5503760;26;19997;-46
2024/04/20 08:00:50;;;;;;;7.70;7.00;;;;;;;;;;5503735;26;20195;-38
2024/04/20 08:03:17;;;;;;;8.90;6.85;;;;;;;;;;5503483;26;19983;-40
2024/04/20 08:05:45;;;;;;;9.60;6.40;;;;;;;;;;5503755;26;19990;-43
2024/04/20 08:08:11;;;;;;;7.65;6.57;;;;;;;;;;5503304;26;20083;-42
2024/04/20 08:10:38;;;;;;;7.15;6.45;;;;;;;;;;5503395;26;20091;-46
2024/04/20 08:13:04;;;;;;;7.38;6.68;;;;;;;;;;5503462;26;20091;-45
2024/04/20 08:15:31;;;;;;;8.43;6.35;;;;;;;;;;5503471;26;19990;-55
2024/04/20 08:17:58;;;;;;;9.02;6.78;;;;;;;;;;5503233;26;19997;-38
2024/04/20 08:20:24;;;;;;;7.88;6.93;;;;;;;;;;5503372;26;20002;-38
2024/04/20 08:22:51;;;;;;;8.63;6.63;;;;;;;;;;5503359;26;19993;-36
2024/04/20 08:25:18;;;;;;;7.88;6.65;;;;;;;;;;5503105;26;20046;-43
2024/04/20 08:27:44;;;;;;;7.70;6.90;;;;;;;;;;5502953;26;20002;-40
2024/04/20 08:30:11;;;;;;;7.95;7.10;;;;;;;;;;5503428;26;20002;-48
2024/04/20 08:32:38;;;;;;;7.97;6.88;;;;;;;;;;5502912;26;20196;-40
2024/04/20 08:35:04;;;;;;;8.13;6.93;;;;;;;;;;5502417;26;19994;-40
2024/04/20 08:37:34;;;;;;;7.90;6.95;;;;;;;;;;5502761;26;20010;-40
2024/04/20 08:40:00;;;;;;;8.88;7.68;;;;;;;;;;5502992;26;19990;-41
2024/04/20 08:42:30;;;;;;;8.45;7.50;;;;;;;;;;5503239;26;19990;-52
2024/04/20 08:44:57;;;;;;;8.95;6.93;;;;;;;;;;5503064;26;20112;-47
2024/04/20 08:47:23;;;;;;;8.50;7.60;;;;;;;;;;5502975;26;20014;-52
2024/04/20 08:49:51;;;;;;;11.85;8.02;;;;;;;;;;5502915;26;20046;-40
2024/04/20 08:52:18;;;;;;;9.18;7.55;;;;;;;;;;5502851;26;19986;-47
2024/04/20 08:54:45;;;;;;;8.27;7.47;;;;;;;;;;5502578;26;19994;-50
2024/04/20 08:57:16;;;;;;;9.07;8.27;;;;;;;;;;5502760;26;20150;-40
2024/04/20 08:59:43;;;;;;;9.95;7.88;;;;;;;;;;5502722;26;19978;-43
2024/04/20 09:02:12;;;;;;;9.65;8.02;;;;;;;;;;5502448;26;19998;-40
2024/04/20 09:04:38;;;;;;;8.90;7.60;;;;;;;;;;5502791;26;19986;-50
2024/04/20 09:07:06;;;;;;;8.57;7.38;;;;;;;;;;5502648;26;20206;-40
2024/04/20 09:09:33;;;;;;;8.95;8.05;;;;;;;;;;5502486;26;20148;-39
2024/04/20 09:12:00;;;;;;;8.65;7.75;;;;;;;;;;5502561;26;20006;-40
2024/04/20 09:14:28;;;;;;;11.35;7.82;;;;;;;;;;5502328;26;19982;-43
2024/04/20 09:16:55;;;;;;;10.18;9.07;;;;;;;;;;5502361;26;19986;-43
2024/04/20 09:19:22;;;;;;;9.35;8.45;;;;;;;;;;5502334;26;19982;-39
2024/04/20 09:21:49;;;;;;;8.82;7.93;;;;;;;;;;5502433;26;20015;-39
2024/04/20 09:24:16;;;;;;;10.45;7.90;;;;;;;;;;5502032;26;20010;-40
2024/04/20 09:26:50;;;;;;;9.55;8.35;;;;;;;;;;5502149;26;19990;-40
2024/04/20 09:29:17;;;;;;;10.10;8.20;;;;;;;;;;5502189;26;19998;-41
2024/04/20 09:32:09;;;;;;;10.45;8.00;;;;;;;;;;5501999;26;19993;-46
2024/04/20 09:34:36;;;;;;;8.90;8.00;;;;;;;;;;5498999;26;19986;-39
2024/04/20 09:37:03;;;;;;;8.98;8.07;;;;;;;;;;5501719;26;20172;-39
2024/04/20 09:39:30;;;;;;;9.20;8.18;;;;;;;;;;5501908;26;20042;-42
2024/04/20 09:42:01;;;;;;;14.32;8.60;;;;;;;;;;5501975;26;19997;-46
2024/04/20 09:44:30;;;;;;;10.38;8.68;;;;;;;;;;5501669;26;19997;-39
2024/04/20 09:46:57;;;;;;;12.25;8.60;;;;;;;;;;5502730;26;19989;-40
2024/04/20 09:49:31;;;;;;;9.27;7.90;;;;;;;;;;5505635;26;20088;-44
2024/04/20 09:52:03;;;;;;;9.02;7.93;;;;;;;;;;5505678;26;20123;-43
2024/04/20 09:54:32;;;;;;;12.07;8.68;;;;;;;;;;5505496;26;19994;-40
2024/04/20 09:57:00;;;;;;;10.02;8.88;;;;;;;;;;5505376;26;19993;-45
2024/04/20 09:59:27;;;;;;;12.50;8.55;;;;;;;;;;5505429;26;19982;-40
2024/04/20 10:01:55;;;;;;;9.88;8.68;;;;;;;;;;5505269;26;20090;-42
2024/04/20 10:04:23;;;;;;;10.18;8.70;;;;;;;;;;5504826;26;19989;-43
2024/04/20 10:06:50;;;;;;;11.43;8.82;;;;;;;;;;5505372;26;19990;-39
2024/04/20 10:09:18;;;;;;;9.65;8.52;;;;;;;;;;5505341;26;19986;-39
2024/04/20 10:11:45;;;;;;;8.55;7.82;;;;;;;;;;5505169;26;19986;-41
2024/04/20 10:14:12;;;;;;;10.70;8.60;;;;;;;;;;5505216;26;19993;-44
2024/04/20 10:16:40;;;;;;;11.50;8.32;;;;;;;;;;5505332;26;19991;-40
2024/04/20 10:19:07;;;;;;;11.10;9.13;;;;;;;;;;5504634;26;19994;-40
2024/04/20 10:21:33;;;;;;;10.95;8.40;;;;;;;;;;5505194;26;20140;-40
2024/04/20 10:24:00;;;;;;;11.45;8.65;;;;;;;;;;5505004;26;19990;-39
2024/04/20 10:26:28;;;;;;;15.95;9.68;;;;;;;;;;5504830;26;20055;-40
2024/04/20 10:29:05;;;;;;;19.30;11.93;;;;;;;;;;5505041;26;20001;-39
2024/04/20 10:31:32;;;;;;;29.67;12.82;;;;;;;;;;5504986;26;19993;-42
2024/04/20 10:33:59;;;;;;;24.13;13.05;;;;;;;;;;5505028;26;20050;-45
2024/04/20 10:36:26;;;;;;;25.80;13.15;;;;;;;;;;5504953;26;19986;-42
2024/04/20 10:39:06;;;;;;;34.45;13.50;;;;;;;;;;5498022;26;20006;-37
2024/04/20 10:41:39;;;;;;;29.45;15.43;;;;;;;;;;5497716;26;20075;-43
2024/04/20 10:44:15;;;;;;;24.35;14.35;;;;;;;;;;5480108;26;19983;-39
2024/04/20 10:46:54;;;;;;;21.48;12.65;;;;;;;;;;5471288;26;19987;-46
2024/04/20 10:49:21;;;;;;;18.90;12.38;;;;;;;;;;5505164;26;19986;-47
2024/04/20 10:51:52;;;;;;;18.48;11.80;;;;;;;;;;5504750;26;19998;-40
2024/04/20 10:54:19;;;;;;;18.10;11.38;;;;;;;;;;5504752;26;19986;-44
2024/04/20 10:56:46;;;;;;;11.98;10.07;;;;;;;;;;5469610;26;20043;-40
2024/04/20 10:59:13;;;;;;;16.77;10.73;;;;;;;;;;5467487;26;19999;-40
2024/04/20 11:01:41;;;;;;;16.92;11.00;;;;;;;;;;5467843;26;20001;-43
2024/04/20 11:04:08;;;;;;;16.25;11.80;;;;;;;;;;5468087;26;19997;-41
2024/04/20 11:06:35;;;;;;;15.25;10.25;;;;;;;;;;5468020;26;20003;-45
2024/04/20 11:09:02;;;;;;;14.15;10.13;;;;;;;;;;5468052;26;20040;-46
2024/04/20 11:11:29;;;;;;;18.92;10.85;;;;;;;;;;5468066;26;19987;-43
2024/04/20 11:13:59;;;;;;;18.27;10.15;;;;;;;;;;5467814;26;19987;-44
2024/04/20 11:16:29;;;;;;;16.20;10.30;;;;;;;;;;5467990;26;19986;-43
2024/04/20 11:18:55;;;;;;;13.93;9.75;;;;;;;;;;5467908;26;20125;-49
2024/04/20 11:21:22;;;;;;;15.10;10.15;;;;;;;;;;5467714;26;19987;-50
2024/04/20 11:23:49;;;;;;;24.42;11.25;;;;;;;;;;5467813;26;20091;-39
2024/04/20 11:26:16;;;;;;;16.55;10.15;;;;;;;;;;5467802;26;20019;-40
2024/04/20 11:28:43;;;;;;;25.35;10.90;;;;;;;;;;5467621;26;20137;-40
2024/04/20 11:31:10;;;;;;;18.23;9.90;;;;;;;;;;5467812;26;19990;-45
2024/04/20 11:33:37;;;;;;;16.33;10.48;;;;;;;;;;5467477;26;19991;-44
2024/04/20 11:36:06;;;;;;;13.63;9.93;;;;;;;;;;5467528;26;19998;-44
2024/04/20 11:38:33;;;;;;;13.32;9.95;;;;;;;;;;5467623;26;19987;-41
2024/04/20 11:41:00;;;;;;;15.13;9.38;;;;;;;;;;5467571;26;19987;-39
2024/04/20 11:43:26;;;;;;;15.75;10.80;;;;;;;;;;5467467;26;19991;-40
2024/04/20 11:45:56;;;;;;;17.20;9.50;;;;;;;;;;5467528;26;20057;-41
2024/04/20 11:48:29;;;;;;;21.13;9.93;;;;;;;;;;5470940;26;20002;-40
2024/04/20 11:51:02;;;;;;;18.85;9.40;;;;;;;;;;5493885;26;20079;-40
2024/04/20 11:56:22;;;;;;;77.43;13.63;;;;;;;;;;5504217;26;20039;-44
2024/04/20 11:58:50;;;;;;;31.13;10.88;;;;;;;;;;5498223;26;19987;-41
2024/04/20 12:01:17;;;;;;;22.70;10.20;;;;;;;;;;5467202;26;19995;-41
2024/04/20 12:03:48;;;;;;;19.40;10.20;;;;;;;;;;5467345;26;20219;-43
2024/04/20 12:06:15;;;;;;;25.10;11.57;;;;;;;;;;5467542;26;19990;-41
2024/04/20 12:08:42;;;;;;;19.75;10.23;;;;;;;;;;5474631;26;20003;-39
2024/04/20 12:11:08;;;;;;;16.33;10.48;;;;;;;;;;5502624;26;20031;-42
2024/04/20 12:13:35;;;;;;;13.35;10.20;;;;;;;;;;5503575;26;20024;-47
2024/04/20 12:16:02;;;;;;;15.20;9.85;;;;;;;;;;5503405;26;19993;-42
2024/04/20 12:18:28;;;;;;;12.23;9.73;;;;;;;;;;5503379;26;20014;-40
2024/04/20 12:20:55;;;;;;;10.68;9.63;;;;;;;;;;5503341;26;20002;-42
2024/04/20 12:23:21;;;;;;;10.93;9.75;;;;;;;;;;5502151;26;20000;-40
2024/04/20 12:25:48;;;;;;;10.98;9.27;;;;;;;;;;5503165;26;19994;-43
2024/04/20 12:28:18;;;;;;;13.35;9.90;;;;;;;;;;5502889;26;20094;-44
2024/04/20 12:30:45;;;;;;;12.32;9.50;;;;;;;;;;5503737;26;20001;-40
2024/04/20 12:33:12;;;;;;;11.40;9.25;;;;;;;;;;5503098;26;20088;-42
2024/04/20 12:35:40;;;;;;;18.02;9.82;;;;;;;;;;5494737;26;20210;-38
2024/04/20 12:38:07;;;;;;;14.68;10.38;;;;;;;;;;5477768;25;20051;-38
2024/04/20 12:40:35;;;;;;;15.07;10.38;;;;;;;;;;5513812;26;20017;-43
2024/04/20 12:43:02;;;;;;;13.10;10.15;;;;;;;;;;5515017;26;19993;-42
2024/04/20 12:45:29;;;;;;;15.90;10.73;;;;;;;;;;5504260;26;20106;-40
2024/04/20 12:48:00;;;;;;;14.65;9.90;;;;;;;;;;5503081;26;19991;-40
2024/04/20 12:50:26;;;;;;;16.50;10.80;;;;;;;;;;5503757;26;20018;-41
2024/04/20 12:52:53;;;;;;;14.32;10.73;;;;;;;;;;5498554;26;20250;-39
2024/04/20 12:55:21;;;;;;;13.02;10.85;;;;;;;;;;5498594;26;20039;-40
2024/04/20 12:57:48;;;;;;;13.38;10.10;;;;;;;;;;5501897;26;19998;-44
2024/04/20 13:00:15;;;;;;;11.95;10.52;;;;;;;;;;5502634;26;20091;-42
2024/04/20 13:02:43;;;;;;;11.57;9.93;;;;;;;;;;5502630;26;19986;-45
2024/04/20 13:05:10;;;;;;;13.05;10.18;;;;;;;;;;5502610;26;20094;-46
2024/04/20 13:07:37;;;;;;;14.13;11.07;;;;;;;;;;5502367;26;20091;-39
2024/04/20 13:10:04;;;;;;;12.18;10.77;;;;;;;;;;5502540;26;20091;-45
2024/04/20 13:12:31;;;;;;;11.77;10.77;;;;;;;;;;5502566;26;19993;-41
2024/04/20 13:14:58;;;;;;;12.02;10.80;;;;;;;;;;5502311;26;20195;-40
2024/04/20 13:17:24;;;;;;;12.60;11.38;;;;;;;;;;5502266;26;19989;-41
2024/04/20 13:19:58;;;;;;;13.40;10.40;;;;;;;;;;5502233;26;20001;-41
2024/04/20 13:22:25;;;;;;;11.40;10.35;;;;;;;;;;5505466;26;19997;-46
2024/04/20 13:24:53;;;;;;;12.98;11.70;;;;;;;;;;5506143;26;20098;-43
2024/04/20 13:27:20;;;;;;;11.90;10.63;;;;;;;;;;5505669;26;19986;-46
2024/04/20 13:29:46;;;;;;;11.98;10.75;;;;;;;;;;5505070;26;20009;-48
2024/04/20 13:32:14;;;;;;;13.88;11.07;;;;;;;;;;5505310;26;20013;-41
2024/04/20 13:34:41;;;;;;;12.63;11.32;;;;;;;;;;5505663;26;20244;-43
2024/04/20 13:37:08;;;;;;;12.88;11.65;;;;;;;;;;5506003;26;20198;-40
2024/04/20 13:39:35;;;;;;;12.52;11.23;;;;;;;;;;5505469;26;19986;-46
2024/04/20 13:42:02;;;;;;;13.32;11.93;;;;;;;;;;5505643;26;19987;-41
2024/04/20 13:44:28;;;;;;;13.27;11.88;;;;;;;;;;5505683;26;20000;-40
2024/04/20 13:46:55;;;;;;;12.95;11.55;;;;;;;;;;5505755;26;20056;-44
2024/04/20 13:49:23;;;;;;;12.70;11.50;;;;;;;;;;5505635;26;20042;-41
2024/04/20 13:51:50;;;;;;;12.73;10.95;;;;;;;;;;5505612;26;20027;-47
2024/04/20 13:54:16;;;;;;;13.20;11.50;;;;;;;;;;5505629;26;19998;-41
2024/04/20 13:56:45;;;;;;;12.57;11.27;;;;;;;;;;5505805;26;19997;-39
2024/04/20 13:59:14;;;;;;;11.48;10.38;;;;;;;;;;5505457;26;19986;-46
2024/04/20 14:01:41;;;;;;;11.90;10.70;;;;;;;;;;5505541;26;19987;-42
2024/04/20 14:04:08;;;;;;;11.35;10.13;;;;;;;;;;5505381;26;19993;-44
2024/04/20 14:06:35;;;;;;;10.88;9.80;;;;;;;;;;5505463;26;20211;-48
2024/04/20 14:09:01;;;;;;;11.00;9.88;;;;;;;;;;5505267;26;19994;-47
2024/04/20 14:11:28;;;;;;;12.40;9.45;;;;;;;;;;5505474;26;20158;-43
2024/04/20 14:13:54;;;;;;;11.68;9.48;;;;;;;;;;5505066;26;19994;-47
2024/04/20 14:16:21;;;;;;;10.15;9.10;;;;;;;;;;5505342;26;19982;-40
2024/04/20 14:18:48;;;;;;;10.45;9.43;;;;;;;;;;5505266;26;19993;-42
2024/04/20 14:21:14;;;;;;;10.50;9.43;;;;;;;;;;5505084;26;20032;-41
2024/04/20 14:23:41;;;;;;;9.18;8.38;;;;;;;;;;5505047;26;20018;-41
2024/04/20 14:26:08;;;;;;;10.18;9.15;;;;;;;;;;5505098;26;20002;-41
2024/04/20 14:28:35;;;;;;;9.20;8.40;;;;;;;;;;5504593;26;19986;-39
2024/04/20 14:31:03;;;;;;;9.75;8.77;;;;;;;;;;5505206;26;19990;-39
2024/04/20 14:33:32;;;;;;;9.32;8.43;;;;;;;;;;5504240;26;20080;-42